Time;durP1;ratioP1;P1;durP2;ratioP2;P2;SDS_P1;SDS_P2;PMS_P1;PMS_P2;Temp;Humidity;BMP_temperature;BMP_pressure;BME280_temperature;BME280_humidity;BME280_pressure;Samples;Min_cycle;Max_cycle;Signal;HPM_P1;HPM_P2
2021/09/28 00:00:31;;;;;;;1.00;0.70;;;;;;;16.48;68.22;97247.94;5094640;28;20442;-70
2021/09/28 00:02:57;;;;;;;2.80;0.90;;;;;;;16.27;68.67;97241.63;5084164;28;20435;-69
2021/09/28 00:05:23;;;;;;;1.37;0.90;;;;;;;16.19;69.81;97245.19;5093190;28;20208;-68
2021/09/28 00:07:49;;;;;;;1.00;0.83;;;;;;;16.40;69.41;97251.53;5093941;28;20491;-66
2021/09/28 00:10:14;;;;;;;1.10;0.90;;;;;;;16.47;68.99;97256.88;5103339;28;20215;-69
2021/09/28 00:12:40;;;;;;;1.13;0.77;;;;;;;16.33;69.77;97242.69;5100049;28;20512;-68
2021/09/28 00:15:07;;;;;;;1.97;1.00;;;;;;;16.30;69.62;97257.13;5098116;28;20643;-69
2021/09/28 00:17:33;;;;;;;1.27;0.93;;;;;;;16.38;68.93;97258.81;5096363;28;20181;-68
2021/09/28 00:19:58;;;;;;;2.03;0.90;;;;;;;16.13;69.62;97256.53;5096477;28;20510;-69
2021/09/28 00:22:24;;;;;;;0.90;0.80;;;;;;;16.09;68.94;97250.81;5098128;28;20729;-68
2021/09/28 00:24:50;;;;;;;3.57;0.90;;;;;;;16.16;69.04;97255.34;5100379;28;20202;-68
2021/09/28 00:27:15;;;;;;;4.10;1.13;;;;;;;16.24;69.05;97256.03;5102461;28;20303;-69
2021/09/28 00:29:41;;;;;;;1.10;0.83;;;;;;;16.05;69.25;97257.47;5105491;28;20174;-67
2021/09/28 00:32:07;;;;;;;3.10;0.97;;;;;;;16.04;69.30;97257.66;5109691;28;20174;-65
2021/09/28 00:34:34;;;;;;;1.10;0.70;;;;;;;16.08;69.30;97254.44;5095981;28;20213;-66
2021/09/28 00:37:00;;;;;;;3.93;0.80;;;;;;;15.90;70.55;97256.66;5095805;28;21198;-64
2021/09/28 00:39:26;;;;;;;1.60;1.03;;;;;;;15.86;70.60;97255.41;5099992;28;20440;-65
2021/09/28 00:41:52;;;;;;;1.40;0.87;;;;;;;15.96;71.06;97256.75;5100307;28;20181;-66
2021/09/28 00:44:32;;;;;;;0.90;0.80;;;;;;;16.03;70.71;97262.09;5102826;28;20217;-65
2021/09/28 00:46:57;;;;;;;1.77;0.80;;;;;;;15.71;72.62;97264.16;5104459;28;20173;-63
2021/09/28 00:49:24;;;;;;;1.43;1.10;;;;;;;15.99;71.61;97278.53;5099338;28;20440;-66
2021/09/28 00:51:50;;;;;;;3.00;1.13;;;;;;;15.85;72.86;97280.19;5100591;28;20449;-65
2021/09/28 00:54:15;;;;;;;1.37;1.10;;;;;;;15.77;73.12;97284.53;5098803;28;20213;-66
2021/09/28 00:56:42;;;;;;;3.13;1.10;;;;;;;15.37;74.96;97291.94;5073904;28;20186;-66
2021/09/28 00:59:07;;;;;;;2.60;1.17;;;;;;;15.25;74.86;97302.09;5092919;28;20185;-65
2021/09/28 01:01:34;;;;;;;3.00;1.23;;;;;;;15.19;74.88;97297.53;5088903;28;20424;-65
2021/09/28 01:04:00;;;;;;;1.70;0.93;;;;;;;14.90;75.31;97307.84;5092036;28;20201;-63
2021/09/28 01:06:26;;;;;;;2.17;1.00;;;;;;;14.89;75.43;97305.38;5093354;28;20430;-64
2021/09/28 01:08:51;;;;;;;4.83;1.63;;;;;;;14.73;76.48;97309.78;5094668;28;20188;-66
2021/09/28 01:11:17;;;;;;;1.70;1.17;;;;;;;14.79;75.89;97310.91;5094198;28;20603;-67
2021/09/28 01:13:43;;;;;;;3.67;1.40;;;;;;;14.94;75.51;97320.69;5093162;28;20209;-64
2021/09/28 01:16:10;;;;;;;5.60;1.40;;;;;;;15.02;74.93;97331.16;5094065;28;20190;-66
2021/09/28 01:18:38;;;;;;;2.10;1.50;;;;;;;14.83;74.53;97335.94;5092128;28;20512;-67
2021/09/28 01:21:07;;;;;;;3.80;1.50;;;;;;;14.84;73.92;97332.31;5092921;28;20488;-67
2021/09/28 01:23:33;;;;;;;5.77;1.30;;;;;;;15.23;72.62;97334.97;5093572;28;20503;-66
2021/09/28 01:25:58;;;;;;;5.77;1.43;;;;;;;15.18;72.45;97348.69;5093460;28;20431;-66
2021/09/28 01:28:24;;;;;;;3.87;1.20;;;;;;;15.31;70.74;97359.44;5092564;28;20270;-68
2021/09/28 01:30:49;;;;;;;3.50;1.23;;;;;;;15.12;70.56;97355.47;5092434;28;20670;-67
2021/09/28 01:33:16;;;;;;;3.40;1.00;;;;;;;15.10;69.27;97352.22;5085695;28;20209;-64
2021/09/28 01:35:42;;;;;;;2.93;1.13;;;;;;;14.80;69.62;97357.38;5093353;28;20678;-64
2021/09/28 01:38:08;;;;;;;6.60;1.30;;;;;;;14.98;69.54;97365.00;5093429;28;20423;-65
2021/09/28 01:40:34;;;;;;;5.60;1.10;;;;;;;14.94;69.14;97362.91;5093934;28;20956;-65
2021/09/28 01:43:05;;;;;;;2.30;1.00;;;;;;;15.39;68.15;97355.91;5093586;28;20444;-65
2021/09/28 01:45:31;;;;;;;6.77;1.47;;;;;;;15.16;68.86;97363.88;5089696;28;20432;-66
2021/09/28 01:47:57;;;;;;;3.40;1.03;;;;;;;15.08;68.59;97370.06;5092772;28;20431;-65
2021/09/28 01:50:22;;;;;;;4.57;1.23;;;;;;;15.28;68.57;97364.28;5090640;28;20189;-65
2021/09/28 01:52:48;;;;;;;4.77;1.17;;;;;;;15.44;67.91;97364.13;5092915;28;20715;-64
2021/09/28 01:55:13;;;;;;;3.73;1.37;;;;;;;15.11;69.11;97361.78;5091692;28;20243;-67
2021/09/28 01:57:39;;;;;;;5.23;1.07;;;;;;;15.28;68.24;97362.47;5092729;28;20182;-65
2021/09/28 02:00:05;;;;;;;2.53;1.20;;;;;;;15.38;67.78;97359.56;5092738;28;20637;-65
2021/09/28 02:02:31;;;;;;;3.87;1.40;;;;;;;15.43;67.37;97367.78;5084732;28;20185;-66
2021/09/28 02:04:56;;;;;;;3.73;1.30;;;;;;;15.20;68.52;97368.63;5092496;28;20427;-66
2021/09/28 02:07:22;;;;;;;3.77;1.30;;;;;;;15.57;67.63;97363.50;5092078;28;20681;-67
2021/09/28 02:09:47;;;;;;;3.40;1.23;;;;;;;15.58;67.46;97353.78;5092705;28;20250;-66
2021/09/28 02:12:13;;;;;;;4.53;1.37;;;;;;;15.61;67.09;97364.00;5093153;28;20206;-65
2021/09/28 02:14:38;;;;;;;6.27;1.40;;;;;;;15.62;67.26;97360.34;5096603;28;20561;-66
2021/09/28 02:17:04;;;;;;;2.73;1.17;;;;;;;15.71;66.71;97364.53;5103180;28;20222;-66
2021/09/28 02:19:30;;;;;;;5.77;1.50;;;;;;;15.80;66.67;97363.44;5105895;28;20615;-66
2021/09/28 02:21:55;;;;;;;11.00;1.40;;;;;;;15.85;66.51;97355.00;5106221;28;20190;-66
2021/09/28 02:24:21;;;;;;;3.30;1.17;;;;;;;15.87;66.21;97353.00;5105764;28;20194;-65
2021/09/28 02:26:46;;;;;;;2.83;1.30;;;;;;;15.89;66.01;97351.00;5105304;28;20192;-65
2021/09/28 02:29:12;;;;;;;4.03;1.03;;;;;;;15.93;66.17;97341.72;5101592;28;20591;-66
2021/09/28 02:31:39;;;;;;;2.07;1.20;;;;;;;15.97;66.23;97342.16;5085570;28;20279;-65
2021/09/28 02:34:07;;;;;;;3.63;1.33;;;;;;;15.81;66.52;97351.88;5091130;28;20559;-66
2021/09/28 02:36:38;;;;;;;6.10;1.33;;;;;;;15.78;66.37;97340.84;5090874;28;20495;-67
2021/09/28 02:39:09;;;;;;;4.47;1.43;;;;;;;15.84;66.71;97355.16;5091394;28;20420;-67
2021/09/28 02:41:36;;;;;;;11.30;3.83;;;;;;;15.94;66.48;97353.09;5090473;28;20420;-67
2021/09/28 02:44:03;;;;;;;11.13;3.87;;;;;;;16.06;66.13;97356.91;5091645;28;20763;-65
2021/09/28 02:46:29;;;;;;;9.47;2.40;;;;;;;15.81;67.00;97348.41;5091575;28;20510;-66
2021/09/28 02:48:55;;;;;;;9.27;2.70;;;;;;;15.96;66.39;97348.44;5091568;28;20485;-65
2021/09/28 02:51:21;;;;;;;2.33;1.30;;;;;;;15.82;66.63;97345.59;5091901;28;20850;-66
2021/09/28 02:53:46;;;;;;;3.10;1.80;;;;;;;15.74;66.89;97340.41;5091828;28;20273;-64
2021/09/28 02:56:12;;;;;;;2.90;1.70;;;;;;;15.66;67.13;97348.41;5091952;28;20204;-65
2021/09/28 02:58:37;;;;;;;4.50;1.70;;;;;;;15.69;67.52;97355.97;5090867;28;20268;-65
2021/09/28 03:01:03;;;;;;;2.20;1.33;;;;;;;15.73;67.37;97348.50;5091159;28;20182;-69
2021/09/28 03:03:28;;;;;;;6.43;1.60;;;;;;;15.82;66.98;97348.22;5086660;28;20242;-65
2021/09/28 03:05:54;;;;;;;3.03;2.10;;;;;;;15.78;67.30;97354.88;5094077;28;20201;-66
2021/09/28 03:08:20;;;;;;;3.67;1.57;;;;;;;15.79;66.97;97350.41;5091415;28;20181;-66
2021/09/28 03:10:45;;;;;;;5.67;1.43;;;;;;;15.74;67.36;97343.03;5090742;28;20194;-66
2021/09/28 03:13:11;;;;;;;7.23;1.60;;;;;;;15.60;67.61;97354.41;5093141;28;20216;-65
2021/09/28 03:15:37;;;;;;;5.27;1.27;;;;;;;15.68;67.26;97358.81;5092185;28;20268;-65
2021/09/28 03:18:02;;;;;;;5.03;1.40;;;;;;;15.64;67.42;97353.88;5092931;28;20419;-65
2021/09/28 03:20:28;;;;;;;4.50;1.47;;;;;;;15.69;67.30;97350.69;5086175;28;20246;-66
2021/09/28 03:22:54;;;;;;;4.23;1.77;;;;;;;15.61;67.51;97351.59;5092530;28;20213;-66
2021/09/28 03:25:20;;;;;;;5.80;2.30;;;;;;;15.59;67.36;97356.22;5092812;28;20434;-66
2021/09/28 03:27:45;;;;;;;9.40;2.20;;;;;;;15.64;67.27;97347.75;5092373;28;20204;-65
2021/09/28 03:30:11;;;;;;;6.10;1.93;;;;;;;15.64;67.36;97359.16;5092779;28;20205;-66
2021/09/28 03:32:37;;;;;;;4.90;1.60;;;;;;;15.53;67.53;97359.59;5092273;28;20663;-65
2021/09/28 03:35:09;;;;;;;8.47;2.53;;;;;;;15.29;68.45;97356.19;5091678;28;20459;-66
2021/09/28 03:37:39;;;;;;;9.10;2.67;;;;;;;15.23;68.86;97350.81;5082359;28;20201;-66
2021/09/28 03:40:06;;;;;;;4.00;2.00;;;;;;;15.34;68.49;97353.81;5092994;28;20488;-65
2021/09/28 03:42:32;;;;;;;5.53;1.60;;;;;;;15.41;67.87;97359.19;5092949;28;20420;-66
2021/09/28 03:44:57;;;;;;;7.73;1.80;;;;;;;15.31;68.43;97366.56;5102509;28;20422;-68
2021/09/28 03:47:23;;;;;;;8.00;1.73;;;;;;;15.29;68.28;97366.75;5111257;28;20181;-65
2021/09/28 03:49:48;;;;;;;4.70;1.33;;;;;;;15.19;68.64;97363.50;5088970;28;20186;-61
2021/09/28 03:52:14;;;;;;;7.67;1.90;;;;;;;14.88;69.80;97365.22;5093125;28;20559;-66
2021/09/28 03:54:40;;;;;;;6.27;1.90;;;;;;;15.01;69.05;97364.66;5092821;28;20292;-66
2021/09/28 03:57:05;;;;;;;6.43;2.10;;;;;;;15.08;68.81;97374.50;5093719;28;20277;-65
2021/09/28 03:59:31;;;;;;;4.40;1.70;;;;;;;14.82;69.91;97365.94;5093968;28;20231;-65
2021/09/28 04:01:56;;;;;;;6.17;2.10;;;;;;;14.57;70.77;97368.72;5093479;28;20189;-66
2021/09/28 04:04:22;;;;;;;5.40;1.70;;;;;;;14.73;70.18;97367.00;5093093;28;20193;-66
2021/09/28 04:06:48;;;;;;;5.37;2.00;;;;;;;14.73;69.97;97367.81;5092661;28;20189;-65
2021/09/28 04:09:13;;;;;;;5.70;2.43;;;;;;;14.77;69.89;97365.63;5093655;28;20264;-66
2021/09/28 04:11:39;;;;;;;7.23;2.20;;;;;;;15.02;68.99;97368.09;5092039;28;20268;-66
2021/09/28 04:14:06;;;;;;;8.13;2.17;;;;;;;14.76;69.99;97371.09;5092875;28;20214;-66
2021/09/28 04:16:32;;;;;;;4.80;2.07;;;;;;;14.85;69.53;97364.78;5093371;28;20186;-66
2021/09/28 04:18:57;;;;;;;4.20;2.10;;;;;;;14.73;70.00;97374.91;5092404;28;20495;-66
2021/09/28 04:21:26;;;;;;;5.37;2.60;;;;;;;14.73;70.20;97369.66;5087246;28;21029;-64
2021/09/28 04:23:51;;;;;;;5.10;2.17;;;;;;;14.65;70.25;97377.56;5091134;28;20739;-66
2021/09/28 04:26:18;;;;;;;4.93;2.30;;;;;;;14.33;71.73;97374.91;5093021;28;20473;-66
2021/09/28 04:28:43;;;;;;;7.73;2.30;;;;;;;14.42;71.46;97370.44;5091974;28;20254;-65
2021/09/28 04:31:12;;;;;;;5.73;2.33;;;;;;;14.37;71.71;97378.03;5093091;28;20420;-65
2021/09/28 04:33:37;;;;;;;7.67;2.47;;;;;;;14.34;71.86;97373.13;5093388;28;20209;-66
2021/09/28 04:36:03;;;;;;;3.80;2.60;;;;;;;14.33;71.70;97374.13;5093079;28;20819;-65
2021/09/28 04:38:28;;;;;;;4.70;2.50;;;;;;;14.47;71.48;97370.75;5093168;28;20182;-66
2021/09/28 04:40:54;;;;;;;11.37;3.17;;;;;;;14.46;71.42;97382.28;5093992;28;20345;-66
2021/09/28 04:43:20;;;;;;;5.60;2.47;;;;;;;14.37;71.74;97373.59;5093897;28;20193;-66
2021/09/28 04:45:45;;;;;;;9.33;2.53;;;;;;;14.36;71.77;97379.06;5092091;28;20267;-66
2021/09/28 04:48:11;;;;;;;4.20;2.90;;;;;;;14.26;71.66;97377.41;5091532;28;20184;-67
2021/09/28 04:50:36;;;;;;;11.00;3.10;;;;;;;14.23;72.32;97375.16;5087514;28;20177;-67
2021/09/28 04:53:02;;;;;;;6.30;2.70;;;;;;;14.13;72.30;97377.16;5091746;28;20209;-67
2021/09/28 04:55:27;;;;;;;5.80;2.60;;;;;;;13.94;73.41;97381.84;5095400;28;20272;-67
2021/09/28 04:57:54;;;;;;;4.47;3.00;;;;;;;13.75;74.37;97375.13;5095037;28;20264;-65
2021/09/28 05:00:19;;;;;;;8.90;3.10;;;;;;;13.83;73.82;97375.09;5099006;28;20182;-65
2021/09/28 05:02:45;;;;;;;12.70;3.30;;;;;;;13.89;73.73;97381.50;5109172;28;20488;-65
2021/09/28 05:05:10;;;;;;;6.90;3.17;;;;;;;13.85;74.13;97374.13;5104285;28;20201;-66
2021/09/28 05:07:36;;;;;;;6.63;3.33;;;;;;;13.84;73.77;97375.94;5098176;28;20197;-67
2021/09/28 05:10:04;;;;;;;4.13;3.00;;;;;;;13.86;73.85;97395.00;5099473;28;20224;-65
2021/09/28 05:12:29;;;;;;;4.67;3.37;;;;;;;13.80;73.66;97393.88;5098019;28;20177;-65
2021/09/28 05:14:56;;;;;;;7.27;3.50;;;;;;;13.76;74.22;97391.75;5096594;28;20996;-66
2021/09/28 05:17:22;;;;;;;5.43;3.50;;;;;;;13.64;74.62;97391.28;5096367;28;20265;-65
2021/09/28 05:19:48;;;;;;;12.30;3.83;;;;;;;13.70;74.69;97392.44;5096514;28;20428;-65
2021/09/28 05:22:13;;;;;;;9.60;3.40;;;;;;;13.70;74.62;97395.06;5098305;28;20188;-65
2021/09/28 05:24:39;;;;;;;8.47;3.90;;;;;;;13.65;74.81;97396.38;5107050;28;20200;-65
2021/09/28 05:27:05;;;;;;;7.50;3.80;;;;;;;13.89;73.60;97397.31;5103548;28;20180;-64
2021/09/28 05:29:32;;;;;;;8.20;3.57;;;;;;;13.88;73.61;97400.94;5099758;28;20257;-66
2021/09/28 05:31:57;;;;;;;6.67;3.13;;;;;;;13.85;73.45;97406.56;5099422;28;20186;-66
2021/09/28 05:34:23;;;;;;;6.63;3.47;;;;;;;13.90;73.32;97401.59;5101283;28;20463;-67
2021/09/28 05:36:51;;;;;;;4.53;3.30;;;;;;;13.83;73.62;97396.19;5097054;28;20276;-67
2021/09/28 05:39:17;;;;;;;9.07;3.57;;;;;;;13.87;73.57;97404.56;5097208;28;20620;-66
2021/09/28 05:41:42;;;;;;;5.40;3.73;;;;;;;13.84;73.22;97394.38;5094378;28;20420;-64
2021/09/28 05:44:08;;;;;;;4.83;2.90;;;;;;;14.06;72.26;97403.34;5096185;28;20551;-66
2021/09/28 05:46:33;;;;;;;7.03;3.33;;;;;;;13.96;72.85;97398.31;5095266;28;20231;-66
2021/09/28 05:48:59;;;;;;;6.97;3.13;;;;;;;14.18;71.80;97414.38;5096284;28;20250;-66
2021/09/28 05:51:28;;;;;;;6.47;2.73;;;;;;;14.43;71.40;97409.00;5097315;28;20177;-67
2021/09/28 05:53:54;;;;;;;7.93;3.17;;;;;;;14.36;70.94;97413.31;5096622;28;20205;-66
2021/09/28 05:56:19;;;;;;;6.70;3.10;;;;;;;14.48;70.75;97411.94;5078057;28;20419;-66
2021/09/28 05:58:45;;;;;;;3.67;2.67;;;;;;;14.64;70.12;97413.69;5095451;28;20420;-66
2021/09/28 06:01:10;;;;;;;10.07;2.93;;;;;;;14.87;68.81;97413.72;5091912;28;20170;-65
2021/09/28 06:03:36;;;;;;;8.73;2.70;;;;;;;15.00;68.18;97414.97;5095856;28;20224;-66
2021/09/28 06:06:02;;;;;;;6.20;2.83;;;;;;;15.18;68.07;97410.22;5096180;28;20553;-66
2021/09/28 06:08:27;;;;;;;6.17;2.67;;;;;;;15.24;67.68;97410.53;5094713;28;20196;-69
2021/09/28 06:10:53;;;;;;;7.23;3.10;;;;;;;15.22;67.66;97417.81;5092559;28;20219;-68
2021/09/28 06:13:19;;;;;;;5.13;2.40;;;;;;;15.33;67.23;97401.53;5092622;28;20821;-69
2021/09/28 06:15:44;;;;;;;6.73;2.70;;;;;;;15.27;66.96;97404.88;5091920;28;20178;-69
2021/09/28 06:18:10;;;;;;;7.77;2.93;;;;;;;15.38;66.71;97407.09;5092125;28;20208;-68
2021/09/28 06:20:36;;;;;;;6.33;2.73;;;;;;;15.24;66.54;97410.53;5092538;28;20948;-69
2021/09/28 06:23:01;;;;;;;5.37;2.37;;;;;;;15.29;66.45;97413.44;5091768;28;20632;-70
2021/09/28 06:25:27;;;;;;;8.30;2.90;;;;;;;15.14;66.57;97406.28;5092048;28;20247;-69
2021/09/28 06:27:52;;;;;;;3.30;2.60;;;;;;;15.39;66.67;97405.28;5091761;28;20216;-68
2021/09/28 06:30:18;;;;;;;7.40;2.70;;;;;;;15.68;65.44;97409.81;5087278;28;20174;-68
2021/09/28 06:32:43;;;;;;;5.83;2.70;;;;;;;15.81;64.58;97417.13;5090903;28;20724;-69
2021/09/28 06:35:09;;;;;;;12.07;3.63;;;;;;;15.91;64.66;97422.16;5090788;28;20186;-68
2021/09/28 06:37:35;;;;;;;7.13;2.77;;;;;;;16.13;64.27;97412.50;5091673;28;20681;-68
2021/09/28 06:40:00;;;;;;;4.27;2.33;;;;;;;16.68;63.55;97409.53;5092101;28;20186;-67
2021/09/28 06:42:26;;;;;;;9.70;3.03;;;;;;;16.86;61.46;97411.75;5091236;28;20184;-69
2021/09/28 06:44:51;;;;;;;4.10;1.93;;;;;;;16.92;60.53;97408.34;5091836;28;20204;-69
2021/09/28 06:47:17;;;;;;;6.70;2.70;;;;;;;17.07;60.36;97412.81;5091381;28;20557;-68
2021/09/28 06:49:45;;;;;;;6.30;3.10;;;;;;;17.01;59.81;97407.25;5092044;28;20273;-68
2021/09/28 06:52:11;;;;;;;8.60;2.80;;;;;;;16.92;59.71;97400.41;5092004;28;20192;-68
2021/09/28 06:54:37;;;;;;;13.50;2.87;;;;;;;17.02;59.48;97403.59;5090760;28;20463;-69
2021/09/28 06:57:03;;;;;;;7.10;2.50;;;;;;;16.75;60.70;97397.19;5089754;28;20423;-70
2021/09/28 06:59:29;;;;;;;11.33;3.47;;;;;;;16.68;61.61;97391.81;5089285;28;20416;-69
2021/09/28 07:01:54;;;;;;;7.13;2.70;;;;;;;16.50;62.76;97404.66;5088400;28;20984;-69
2021/09/28 07:04:20;;;;;;;6.33;2.83;;;;;;;16.68;61.79;97397.13;5092819;28;20320;-70
2021/09/28 07:06:46;;;;;;;6.00;2.70;;;;;;;16.62;61.81;97397.88;5091509;28;20672;-69
2021/09/28 07:09:11;;;;;;;7.20;2.93;;;;;;;16.77;61.96;97389.88;5091158;28;20226;-68
2021/09/28 07:11:37;;;;;;;6.93;2.70;;;;;;;16.70;62.82;97405.69;5090296;28;20189;-69
2021/09/28 07:14:02;;;;;;;8.50;2.77;;;;;;;16.60;62.82;97405.16;5091045;28;20350;-70
2021/09/28 07:16:28;;;;;;;6.00;2.43;;;;;;;16.95;62.12;97394.78;5091139;28;20339;-69
2021/09/28 07:18:53;;;;;;;10.23;3.20;;;;;;;17.09;60.50;97393.06;5090458;28;20264;-69
2021/09/28 07:21:19;;;;;;;5.43;2.23;;;;;;;17.17;60.16;97397.41;5090261;28;20170;-68
2021/09/28 07:23:45;;;;;;;4.43;2.17;;;;;;;17.29;59.39;97397.75;5089529;28;20205;-69
2021/09/28 07:26:10;;;;;;;9.30;2.40;;;;;;;17.44;59.04;97395.00;5091082;28;20182;-68
2021/09/28 07:28:36;;;;;;;4.50;2.37;;;;;;;17.17;59.52;97394.78;5091060;28;20189;-69
2021/09/28 07:31:02;;;;;;;5.97;2.10;;;;;;;17.23;59.04;97399.31;5084988;28;20599;-68
2021/09/28 07:33:28;;;;;;;12.33;2.70;;;;;;;17.43;58.44;97401.31;5091370;28;20281;-69
2021/09/28 07:35:54;;;;;;;5.67;2.60;;;;;;;17.39;58.55;97392.94;5090737;28;20496;-68
2021/09/28 07:38:19;;;;;;;9.33;2.47;;;;;;;17.73;57.99;97398.50;5090275;28;20578;-69
2021/09/28 07:40:47;;;;;;;5.80;2.90;;;;;;;17.01;59.29;97396.66;5090101;28;20422;-70
2021/09/28 07:43:13;;;;;;;5.73;2.50;;;;;;;17.27;58.65;97400.56;5092599;28;20277;-69
2021/09/28 07:45:39;;;;;;;3.83;2.60;;;;;;;16.61;60.56;97401.53;5086997;28;20420;-69
2021/09/28 07:48:05;;;;;;;3.70;2.90;;;;;;;17.11;59.75;97395.53;5089253;28;20957;-69
2021/09/28 07:50:30;;;;;;;8.37;3.47;;;;;;;17.43;58.12;97396.00;5089877;28;20512;-69
2021/09/28 07:52:57;;;;;;;9.97;2.80;;;;;;;17.64;57.86;97398.63;5090731;28;20443;-68
2021/09/28 07:55:23;;;;;;;12.33;2.60;;;;;;;17.58;57.86;97390.66;5090672;28;20185;-67
2021/09/28 07:57:49;;;;;;;8.13;2.90;;;;;;;17.92;57.86;97399.63;5090265;28;20427;-68
2021/09/28 08:00:15;;;;;;;5.67;3.33;;;;;;;17.83;57.21;97400.81;5085503;28;20419;-70
2021/09/28 08:02:42;;;;;;;7.43;2.47;;;;;;;17.55;56.82;97399.78;5091774;28;20313;-69
2021/09/28 08:05:08;;;;;;;5.80;2.97;;;;;;;17.23;57.61;97404.63;5091368;28;20484;-69
2021/09/28 08:07:34;;;;;;;6.27;2.50;;;;;;;17.45;56.86;97394.00;5088009;28;20469;-70
2021/09/28 08:09:59;;;;;;;7.40;3.10;;;;;;;16.46;60.41;97398.88;5090998;28;20458;-68
2021/09/28 08:12:25;;;;;;;13.00;3.93;;;;;;;16.57;60.10;97401.03;5090423;28;20209;-69
2021/09/28 08:14:51;;;;;;;10.03;3.67;;;;;;;17.18;58.53;97396.41;5090724;28;20209;-68
2021/09/28 08:17:17;;;;;;;6.93;3.20;;;;;;;17.63;57.30;97401.47;5091442;28;20219;-71
2021/09/28 08:19:43;;;;;;;8.13;2.90;;;;;;;17.86;56.18;97403.88;5090580;28;20201;-69
2021/09/28 08:22:11;;;;;;;4.10;2.80;;;;;;;18.31;55.09;97405.38;5090484;28;20652;-68
2021/09/28 08:24:42;;;;;;;8.03;2.67;;;;;;;18.58;54.07;97407.13;5089834;28;20442;-70
2021/09/28 08:29:58;;;;;;;10.70;2.80;;;;;;;18.55;53.64;97404.06;5088860;28;20424;-70
2021/09/28 08:32:24;;;;;;;9.03;2.90;;;;;;;18.60;53.38;97404.25;5093300;28;20424;-69
2021/09/28 08:34:49;;;;;;;7.50;2.83;;;;;;;18.75;53.20;97400.63;5093549;28;21079;-70
2021/09/28 08:37:15;;;;;;;6.90;2.50;;;;;;;18.38;54.15;97398.28;5094329;28;20189;-68
2021/09/28 08:39:41;;;;;;;7.53;2.63;;;;;;;17.85;54.32;97407.53;5093409;28;20264;-69
2021/09/28 08:42:07;;;;;;;8.13;2.40;;;;;;;18.04;53.62;97405.22;5093970;28;20926;-69
2021/09/28 08:44:33;;;;;;;4.90;2.70;;;;;;;18.14;53.01;97415.50;5094454;28;20734;-69
2021/09/28 08:46:58;;;;;;;7.07;2.60;;;;;;;18.01;53.70;97411.75;5093925;28;20205;-69
2021/09/28 08:49:24;;;;;;;5.53;3.00;;;;;;;18.20;52.95;97407.56;5094157;28;20189;-68
2021/09/28 08:51:51;;;;;;;5.13;2.67;;;;;;;18.11;53.50;97408.75;5094112;28;20559;-70
2021/09/28 08:54:17;;;;;;;6.10;2.60;;;;;;;18.41;52.29;97404.00;5093722;28;20221;-70
2021/09/28 08:56:45;;;;;;;14.50;3.10;;;;;;;18.21;53.29;97398.59;5093044;28;20447;-70
2021/09/28 08:59:13;;;;;;;14.00;3.83;;;;;;;17.80;54.86;97413.44;5092855;28;20423;-69
2021/09/28 09:01:56;;;;;;;6.73;3.07;;;;;;;18.21;53.42;97408.41;5088819;28;20828;-68
2021/09/28 09:04:23;;;;;;;9.63;2.93;;;;;;;17.75;53.77;97412.38;5093983;28;20947;-69
2021/09/28 09:06:49;;;;;;;3.83;2.50;;;;;;;18.22;52.93;97412.66;5093575;28;20424;-70
2021/09/28 09:09:16;;;;;;;6.83;3.20;;;;;;;18.40;52.86;97410.31;5093730;28;20427;-69
2021/09/28 09:11:46;;;;;;;5.60;2.40;;;;;;;18.58;51.07;97406.31;5093297;28;20451;-69
2021/09/28 09:14:20;;;;;;;4.97;2.43;;;;;;;18.46;50.85;97399.94;5093480;28;21042;-70
2021/09/28 09:16:49;;;;;;;4.50;2.13;;;;;;;18.97;49.24;97398.69;5093839;28;20435;-69
2021/09/28 09:19:16;;;;;;;4.93;3.00;;;;;;;19.82;47.50;97399.94;5092310;28;20971;-69
2021/09/28 09:21:43;;;;;;;6.13;3.13;;;;;;;20.24;46.15;97397.81;5093457;28;20433;-70
2021/09/28 09:24:09;;;;;;;5.10;2.70;;;;;;;18.47;48.85;97390.94;5094110;28;20451;-70
2021/09/28 09:26:34;;;;;;;8.10;2.33;;;;;;;18.71;49.30;97392.25;5093891;28;20914;-69
2021/09/28 09:29:01;;;;;;;5.90;3.00;;;;;;;19.56;47.20;97390.94;5093121;28;20182;-69
2021/09/28 09:31:32;;;;;;;4.90;2.40;;;;;;;20.44;45.32;97386.28;5088056;28;20189;-68
2021/09/28 09:34:14;;;;;;;4.23;2.67;;;;;;;20.68;44.87;97377.56;5091906;28;20609;-70
2021/09/28 09:36:41;;;;;;;27.77;16.50;;;;;;;20.23;46.36;97381.03;5092833;28;20803;-70
2021/09/28 09:39:09;;;;;;;7.53;2.40;;;;;;;20.48;44.99;97382.97;5085856;28;20515;-69
2021/09/28 09:41:36;;;;;;;4.90;2.27;;;;;;;19.53;45.95;97375.44;5092559;28;20420;-70
2021/09/28 09:44:06;;;;;;;7.23;2.73;;;;;;;19.36;45.99;97370.53;5091380;28;20954;-71
2021/09/28 09:46:43;;;;;;;3.73;2.50;;;;;;;19.63;45.53;97371.31;5093271;28;20416;-69
2021/09/28 09:49:09;;;;;;;5.63;2.23;;;;;;;19.90;45.46;97370.50;5093275;28;20420;-70
2021/09/28 09:51:50;;;;;;;6.27;3.67;;;;;;;19.42;47.76;97363.56;5091134;28;20836;-70
2021/09/28 09:54:16;;;;;;;4.50;2.90;;;;;;;19.41;48.34;97362.75;5102328;28;20459;-70
2021/09/28 09:56:50;;;;;;;7.27;3.50;;;;;;;18.88;49.82;97361.69;5102867;28;20438;-70
2021/09/28 09:59:21;;;;;;;8.80;3.87;;;;;;;18.57;50.13;97365.69;5099557;28;20416;-69
2021/09/28 10:01:47;;;;;;;6.97;3.20;;;;;;;18.82;49.55;97354.50;5089171;28;20439;-68
2021/09/28 10:04:14;;;;;;;7.63;2.90;;;;;;;18.39;50.07;97354.81;5093557;28;20436;-69
2021/09/28 10:06:40;;;;;;;11.73;3.40;;;;;;;18.47;50.51;97351.13;5093630;28;20427;-69
2021/09/28 10:09:07;;;;;;;25.77;8.50;;;;;;;17.99;51.99;97357.28;5105048;28;20419;-71
2021/09/28 10:11:37;;;;;;;11.10;4.60;;;;;;;18.19;50.91;97352.06;5107637;28;20197;-68
2021/09/28 10:14:03;;;;;;;13.70;3.93;;;;;;;17.91;50.58;97358.22;5104242;28;20504;-71
2021/09/28 10:16:42;;;;;;;9.17;3.20;;;;;;;18.38;48.18;97348.66;5094514;28;20420;-68
2021/09/28 10:19:29;;;;;;;7.77;2.97;;;;;;;18.36;48.60;97353.34;5090842;28;20818;-68
2021/09/28 10:21:59;;;;;;;14.50;5.20;;;;;;;18.67;48.58;97352.03;5092293;28;20427;-70
2021/09/28 10:24:29;;;;;;;6.57;3.33;;;;;;;19.21;47.65;97346.84;5091568;28;20439;-69
2021/09/28 10:26:58;;;;;;;12.50;3.17;;;;;;;18.92;47.54;97342.66;5092417;28;21085;-69
2021/09/28 10:29:43;;;;;;;5.60;3.60;;;;;;;18.76;48.19;97343.88;5091222;28;20465;-69
2021/09/28 10:32:24;;;;;;;6.50;3.73;;;;;;;19.05;48.42;97341.91;5090216;28;20526;-68
2021/09/28 10:35:04;;;;;;;4.17;3.20;;;;;;;19.57;47.32;97334.09;5091663;28;20806;-70
2021/09/28 10:37:42;;;;;;;9.03;3.80;;;;;;;19.28;47.66;97336.19;5091963;28;20454;-70
2021/09/28 10:40:13;;;;;;;14.80;3.30;;;;;;;19.64;46.06;97340.25;5091851;28;20426;-69
2021/09/28 10:42:49;;;;;;;5.80;3.30;;;;;;;19.93;44.68;97338.16;5091877;28;20420;-71
2021/09/28 10:45:20;;;;;;;5.13;3.33;;;;;;;19.92;44.61;97331.19;5091939;28;20412;-70
2021/09/28 10:47:56;;;;;;;4.03;2.60;;;;;;;18.79;46.19;97317.72;5091231;28;20420;-70
2021/09/28 10:50:32;;;;;;;5.90;3.17;;;;;;;19.12;45.74;97317.00;5091182;28;20457;-69
2021/09/28 10:53:03;;;;;;;2.63;2.40;;;;;;;19.69;44.01;97313.84;5089559;28;20412;-69
2021/09/28 10:55:39;;;;;;;6.53;3.00;;;;;;;20.05;43.92;97304.56;5092545;28;20439;-69
2021/09/28 10:58:18;;;;;;;4.57;2.57;;;;;;;19.77;43.67;97310.97;5092187;28;21094;-71
2021/09/28 11:00:48;;;;;;;10.50;3.40;;;;;;;19.99;43.71;97305.41;5087775;28;20506;-67
2021/09/28 11:03:14;;;;;;;10.70;2.70;;;;;;;20.31;43.09;97310.78;5092591;28;20465;-69
2021/09/28 11:05:41;;;;;;;4.97;2.70;;;;;;;19.65;44.60;97312.66;5093430;28;20419;-70
2021/09/28 11:08:09;;;;;;;5.83;2.80;;;;;;;20.25;42.70;97298.34;5092404;28;20186;-70
2021/09/28 11:10:36;;;;;;;6.80;3.10;;;;;;;20.41;43.12;97297.84;5094358;28;20519;-69
2021/09/28 11:13:09;;;;;;;5.53;3.10;;;;;;;20.22;43.90;97298.75;5091452;28;20822;-72
2021/09/28 11:15:35;;;;;;;6.13;3.23;;;;;;;20.03;43.94;97303.97;5094814;28;20420;-70
2021/09/28 11:18:07;;;;;;;8.13;5.00;;;;;;;21.00;41.89;97287.03;5092677;28;20805;-71
2021/09/28 11:20:33;;;;;;;6.17;2.73;;;;;;;20.97;41.48;97289.34;5093983;28;20230;-71
2021/09/28 11:23:04;;;;;;;9.43;3.60;;;;;;;20.13;43.91;97294.72;5091422;28;20443;-68
2021/09/28 11:25:32;;;;;;;7.07;3.63;;;;;;;19.98;43.96;97295.78;5090311;28;20581;-70
2021/09/28 11:28:17;;;;;;;7.53;3.70;;;;;;;19.55;44.91;97291.81;5090158;28;20457;-69
2021/09/28 11:30:51;;;;;;;8.13;3.40;;;;;;;19.92;44.17;97294.78;5086403;28;20416;-69
2021/09/28 11:33:17;;;;;;;7.93;3.40;;;;;;;20.08;43.96;97295.34;5091207;28;20452;-69